Latest Weather Observations for Coolangatta

IDN60801

Issued at 6:03 am EST Monday 25 July 2016 (issued every 30 minutes, with the page automatically refreshed every 10 minutes)

About weather observations | Map of weather stations | Latest weather observations for NSW | Other Formats
Station Details ID: 040717 Name: COOLANGATTA Lat: -28.17 Lon: 153.51 Height: 4.0 m
Data from the previous 72 hours. | See also: Recent months at Coolangatta
Date/Time
EST
Temp
°C
App
Temp
°C
Dew
Point
°C
Rel
Hum
%
Delta-T
°C
Wind Press
QNH
hPa
Press
MSL
hPa
Rain since
9am
mm
Dir  Spd
km/h
Gust
km/h
Spd
kts
Gust
kts
25/06:00am 12.7 10.5 8.0 73 2.3 SE 9 9 5 5 1015.9 1015.9 0.0
25/05:30am 13.7 12.2 9.0 73 2.4 SSE 7 11 4 6 1015.6 1015.6 0.0
25/05:00am 13.3 11.3 8.8 74 2.3 SSE 9 13 5 7 1015.3 1015.3 0.0
25/04:30am 13.5 13.1 11.0 85 1.3 SSW 4 7 2 4 1015.0 1015.0 0.0
25/04:00am 13.5 12.9 11.6 88 1.0 SW 6 7 3 4 1014.8 1014.8 0.0
25/03:30am 13.0 12.2 11.2 89 0.9 WSW 6 9 3 5 1014.9 1014.9 0.0
25/03:00am 13.4 13.9 11.5 88 1.0 CALM 0 0 0 0 1014.9 1014.9 0.0
25/02:30am 13.5 13.9 11.4 87 1.1 CALM 0 0 0 0 1014.8 1014.8 0.0
25/02:00am 13.3 12.7 11.7 90 0.9 SW 6 9 3 5 1014.8 1014.8 0.0
25/01:30am 12.9 12.0 10.8 87 1.1 SW 6 6 3 3 1014.8 1014.8 0.0
25/01:00am 13.5 13.8 11.0 85 1.3 CALM 0 11 0 6 1014.9 1014.9 0.0
25/12:30am 14.2 13.4 11.2 82 1.6 S 6 7 3 4 1015.0 1015.0 0.0
25/12:00am 14.8 14.1 11.4 80 1.8 W 6 11 3 6 1014.9 1014.9 0.0
 
Date/Time
EST
Temp
°C
App
Temp
°C
Dew
Point
°C
Rel
Hum
%
Delta-T
°C
Wind Press
QNH
hPa
Press
MSL
hPa
Rain since
9am
mm
Dir  Spd
km/h
Gust
km/h
Spd
kts
Gust
kts
24/11:30pm 15.1 13.7 10.9 76 2.2 WNW 9 9 5 5 1015.1 1015.1 0.0
24/11:00pm 14.4 13.1 11.2 81 1.7 NW 9 11 5 6 1015.1 1015.1 0.0
24/10:30pm 14.3 13.3 12.2 87 1.1 WSW 9 11 5 6 1015.3 1015.3 0.0
24/10:00pm 14.3 12.8 10.7 79 1.9 WNW 9 11 5 6 1015.1 1015.1 0.0
24/09:30pm 13.7 12.4 11.4 86 1.2 WSW 9 9 5 5 1014.9 1014.9 0.0
24/09:00pm 13.6 12.4 11.5 87 1.1 WSW 9 13 5 7 1014.7 1014.7 0.0
24/08:30pm 12.4 11.3 10.6 89 0.9 W 7 9 4 5 1014.6 1014.6 0.0
24/08:00pm 12.4 10.5 10.6 89 0.9 WSW 11 11 6 6 1014.9 1014.9 0.0
24/07:30pm 13.2 11.6 11.4 89 1.0 WSW 11 13 6 7 1014.6 1014.6 0.0
24/07:00pm 13.4 12.5 10.6 83 1.5 WSW 6 7 3 4 1014.5 1014.5 0.0
24/06:30pm 13.6 12.2 10.8 83 1.5 WSW 9 11 5 6 1014.4 1014.4 0.0
24/06:00pm 14.7 13.8 10.5 76 2.2 W 6 9 3 5 1014.0 1014.0 0.0
24/05:30pm 16.4 15.2 10.3 67 3.2 N 7 9 4 5 1013.6 1013.6 0.0
24/05:00pm 17.9 15.5 10.0 60 4.2 N 13 17 7 9 1013.4 1013.4 0.0
24/04:30pm 18.5 16.0 9.8 57 4.6 NNE 13 17 7 9 1013.0 1013.0 0.0
24/04:00pm 19.0 16.1 9.8 55 4.9 NNE 15 19 8 10 1013.0 1013.0 0.0
24/03:30pm 19.2 16.2 9.1 52 5.3 NNE 15 17 8 9 1013.0 1013.0 0.0
24/03:00pm 19.1 15.9 8.4 50 5.5 NNE 15 19 8 10 1013.3 1013.3 0.0
24/02:30pm 19.5 15.6 7.3 45 6.2 NNE 17 20 9 11 1013.3 1013.3 0.0
24/02:00pm 19.3 15.6 6.4 43 6.4 NNE 15 19 8 10 1014.0 1014.0 0.0
24/01:30pm 18.6 15.2 5.8 43 6.3 NNE 13 17 7 9 1014.4 1014.4 0.0
24/01:00pm 18.8 15.2 4.9 40 6.7 NNE 13 17 7 9 1014.8 1014.8 0.0
24/12:30pm 19.8 16.6 5.1 38 7.2 NNE 11 15 6 8 1015.1 1015.1 0.0
24/12:00pm 19.4 16.3 3.6 35 7.5 NE 9 13 5 7 1015.6 1015.6 0.0
24/11:30am 19.9 15.9 2.7 32 8.0 NE 13 17 7 9 1015.9 1015.9 0.0
24/11:00am 19.1 15.3 1.6 31 7.9 S 11 15 6 8 1016.5 1016.5 0.0
24/10:30am 19.1 15.7 1.6 31 7.9 SE 9 13 5 7 1016.6 1016.6 0.0
24/10:00am 18.9 15.2 0.0 28 8.2 SE 9 13 5 7 1017.1 1017.1 0.0
24/09:30am 18.1 14.3 2.0 34 7.3 WSW 11 13 6 7 1016.8 1016.8 0.0
24/09:00am 17.1 14.5 4.4 43 6.0 SSE 7 9 4 5 1016.8 1016.8 0.0
24/08:30am 16.1 14.0 6.0 51 4.9 SSW 6 9 3 5 1016.6 1016.6 0.0
24/08:00am 13.2 12.2 7.4 68 2.8 SE 2 7 1 4 1016.4 1016.4 0.0
24/07:30am 12.8 11.0 7.0 68 2.8 SSE 6 7 3 4 1016.1 1016.1 0.0
24/07:00am 12.7 10.8 6.7 67 2.9 SE 6 7 3 4 1015.7 1015.7 0.0
24/06:30am 12.6 11.0 4.6 58 3.7 SSW 2 7 1 4 1015.2 1015.2 0.0
24/06:00am 13.2 10.1 3.8 53 4.2 SSW 9 11 5 6 1014.5 1014.5 0.0
24/05:30am 12.6 11.1 6.9 68 2.7 SW 4 9 2 5 1014.1 1014.1 0.0
24/05:00am 14.2 10.7 3.4 48 4.9 SSW 11 15 6 8 1013.7 1013.7 0.0
24/04:30am 12.6 10.4 7.9 73 2.3 WSW 9 11 5 6 1013.5 1013.5 0.0
24/04:00am 13.2 10.9 7.4 68 2.8 WSW 9 13 5 7 1013.3 1013.3 0.0
24/03:30am 13.0 11.6 5.4 60 3.5 W 2 7 1 4 1013.6 1013.6 0.0
24/03:00am 14.4 11.2 5.2 54 4.3 ESE 11 15 6 8 1013.4 1013.4 0.0
24/02:30am 13.9 11.6 5.8 58 3.8 SSW 7 13 4 7 1013.1 1013.1 0.0
24/02:00am 14.4 11.1 4.7 52 4.5 S 11 15 6 8 1013.2 1013.2 0.0
24/01:30am 12.7 10.2 6.5 66 3.0 S 9 11 5 6 1013.4 1013.4 0.0
24/01:00am 12.7 10.1 6.3 65 3.0 WSW 9 11 5 6 1013.2 1013.2 0.0
24/12:30am 12.3 9.1 7.0 70 2.5 SW 13 15 7 8 1013.0 1013.0 0.0
24/12:00am 11.3 8.6 7.2 76 2.0 SW 11 13 6 7 1012.7 1012.7 0.0
 
Date/Time
EST
Temp
°C
App
Temp
°C
Dew
Point
°C
Rel
Hum
%
Delta-T
°C
Wind Press
QNH
hPa
Press
MSL
hPa
Rain since
9am
mm
Dir  Spd
km/h
Gust
km/h
Spd
kts
Gust
kts
23/11:30pm 11.3 8.6 5.8 69 2.6 SSW 9 11 5 6 1012.6 1012.6 0.0
23/11:00pm 11.6 10.4 4.8 63 3.1 CALM 0 6 0 3 1012.1 1012.1 0.0
23/10:30pm 13.6 11.1 4.5 54 4.2 S 7 11 4 6 1011.9 1011.9 0.0
23/10:00pm 16.6 13.8 5.3 47 5.4 SW 9 13 5 7 1011.8 1011.8 0.0
23/09:30pm 16.8 13.4 6.0 49 5.2 SW 13 15 7 8 1011.6 1011.6 0.0
23/09:00pm 18.4 14.5 3.5 37 7.0 WSW 13 15 7 8 1011.4 1011.4 0.0
23/08:30pm 18.7 16.4 4.8 40 6.7 WSW 6 7 3 4 1011.3 1011.3 0.0
23/08:00pm 20.4 17.5 6.7 41 6.9 SSW 11 17 6 9 1010.9 1010.9 0.0
23/07:30pm 21.7 17.9 7.5 40 7.3 WNW 17 26 9 14 1010.0 1010.0 0.0
23/07:00pm 22.5 20.4 8.2 40 7.5 WNW 9 11 5 6 1009.4 1009.4 0.0
23/06:30pm 23.5 20.8 8.8 39 7.9 W 13 20 7 11 1009.3 1009.3 0.0
23/06:00pm 24.6 21.2 9.3 38 8.3 WNW 17 26 9 14 1008.2 1008.2 0.0
23/05:30pm 24.5 20.8 9.3 38 8.3 WNW 19 30 10 16 1007.9 1007.9 0.0
23/05:00pm 25.8 21.6 9.6 36 8.9 WNW 22 35 12 19 1007.4 1007.4 0.0
23/04:30pm 26.8 23.2 10.5 36 9.1 WNW 20 30 11 16 1007.2 1007.2 0.0
23/04:00pm 28.0 24.9 11.5 35 9.5 WNW 19 35 10 19 1006.8 1006.8 0.0
23/03:30pm 28.4 24.4 11.9 36 9.5 WNW 24 35 13 19 1006.5 1006.5 0.0
23/03:00pm 28.9 26.2 12.8 37 9.5 W 19 26 10 14 1006.2 1006.2 0.0
23/02:30pm 29.0 24.8 12.4 36 9.7 WNW 26 43 14 23 1005.9 1005.9 0.0
23/02:00pm 29.0 24.7 12.0 35 9.9 WNW 26 39 14 21 1005.9 1005.9 0.0
23/01:49pm 28.8 24.4 11.8 35 9.8 W 26 46 14 25 1005.9 1005.9 0.0
23/01:30pm 29.2 26.8 13.8 39 9.2 WNW 19 30 10 16 1005.9 1005.9 0.0
23/01:00pm 28.9 25.0 13.2 38 9.3 WNW 26 39 14 21 1006.0 1006.0 0.0
23/12:30pm 28.7 25.3 13.8 40 8.9 WNW 24 43 13 23 1006.1 1006.1 0.0
23/12:00pm 28.6 25.6 13.7 40 8.9 W 22 41 12 22 1006.5 1006.5 0.0
23/11:30am 28.2 26.4 14.4 42 8.3 WNW 17 30 9 16 1006.8 1006.8 0.0
23/11:00am 27.6 26.8 16.2 49 7.1 NW 15 26 8 14 1007.2 1007.2 0.0
23/10:30am 26.5 24.2 16.7 55 6.1 NW 24 35 13 19 1007.4 1007.4 0.0
23/10:00am 24.9 22.8 17.1 62 4.8 N 24 32 13 17 1007.6 1007.6 0.0
23/09:30am 24.0 21.2 17.3 66 4.2 N 28 33 15 18 1007.9 1007.9 0.0
23/09:00am 23.1 20.8 17.6 71 3.4 N 26 32 14 17 1008.0 1008.0 0.0
23/08:30am 22.1 22.0 17.0 73 3.1 NE 13 17 7 9 1008.2 1008.2 0.0
23/08:00am 21.3 22.1 17.3 78 2.5 NNE 9 11 5 6 1008.7 1008.7 0.0
23/07:30am 18.8 20.7 17.6 93 0.7 N 4 9 2 5 1008.6 1008.6 0.0
23/07:00am 16.5 17.8 15.2 92 0.8 W 2 9 1 5 1008.5 1008.5 0.0
23/06:30am 18.3 18.4 16.6 90 1.0 N 11 15 6 8 1008.2 1008.2 0.0
23/06:00am 18.9 18.1 17.9 94 0.6 N 19 22 10 12 1008.2 1008.2 0.0
23/05:30am 17.9 17.7 17.7 99 0.1 N 15 19 8 10 1007.9 1007.9 0.0
23/05:29am 17.7 17.8 17.5 99 0.1 N 13 19 7 10 1007.9 1007.9 0.0
23/05:00am 15.4 16.7 15.1 98 0.2 ESE 2 7 1 4 1008.0 1008.0 0.0
23/04:30am 15.6 17.0 15.3 98 0.2 SE 2 7 1 4 1007.9 1007.9 0.0
23/04:00am 15.3 16.9 15.0 98 0.2 CALM 0 2 0 1 1007.9 1007.9 0.0
23/03:30am 15.7 17.4 15.2 97 0.3 CALM 0 0 0 0 1008.0 1008.0 0.0
23/03:00am 16.3 17.2 16.0 98 0.2 W 6 9 3 5 1008.3 1008.3 0.0
23/02:50am 16.4 17.1 16.1 98 0.2 W 7 9 4 5 1008.5 1008.5 0.0
23/02:45am 16.6 17.4 16.3 98 0.2 WSW 7 11 4 6 1008.6 1008.6 0.0
23/02:30am 16.8 17.7 16.5 98 0.2 WSW 7 11 4 6 1008.7 1008.7 0.0
23/02:00am 16.5 17.2 16.0 97 0.3 WNW 7 11 4 6 1008.9 1008.9 0.0
23/01:30am 16.4 17.2 15.9 97 0.3 WNW 6 7 3 4 1009.3 1009.3 0.0
23/01:18am 16.6 17.5 16.1 97 0.3 WNW 6 9 3 5 1009.4 1009.4 0.0
23/01:17am 16.6 17.5 16.1 97 0.3 WNW 6 7 3 4 1009.4 1009.4 0.0
23/01:00am 16.3 17.4 15.5 95 0.5 WSW 4 11 2 6 1009.6 1009.6 0.0
23/12:39am 17.3 19.2 16.7 96 0.4 SW 2 6 1 3 1009.8 1009.8 0.0
23/12:30am 17.3 18.4 16.7 96 0.4 SW 6 11 3 6 1009.8 1009.8 0.0
23/12:22am 17.3 18.2 16.7 96 0.4 WSW 7 11 4 6 1010.0 1010.0 0.0
23/12:00am 17.0 17.9 16.0 94 0.6 NW 6 7 3 4 1009.8 1009.8 0.0
 
Date/Time
EST
Temp
°C
App
Temp
°C
Dew
Point
°C
Rel
Hum
%
Delta-T
°C
Wind Press
QNH
hPa
Press
MSL
hPa
Rain since
9am
mm
Dir  Spd
km/h
Gust
km/h
Spd
kts
Gust
kts
22/11:30pm 17.6 19.8 16.5 93 0.7 CALM 0 6 0 3 1010.4 1010.4 0.0
22/11:00pm 18.4 20.6 16.6 89 1.1 CALM 0 0 0 0 1010.6 1010.6 0.0
22/10:55pm 18.5 20.7 16.5 88 1.2 CALM 0 4 0 2 1010.7 1010.7 0.0
22/10:30pm 19.8 21.2 17.8 88 1.2 NW 7 9 4 5 1011.0 1011.0 0.0
22/10:00pm 20.2 20.5 18.0 87 1.4 NNW 13 17 7 9 1011.1 1011.1 0.0
22/09:30pm 20.8 21.1 17.8 83 1.9 NW 13 19 7 10 1011.4 1011.4 0.0
22/09:00pm 20.8 20.9 17.4 81 2.1 NNW 13 17 7 9 1011.3 1011.3 0.0
22/08:30pm 21.1 20.8 17.3 79 2.3 NNW 15 20 8 11 1011.3 1011.3 0.0
22/08:00pm 21.2 20.5 17.4 79 2.3 NNW 17 22 9 12 1011.4 1011.4 0.0
22/07:30pm 20.1 21.3 18.2 89 1.2 N 9 11 5 6 1011.4 1011.4 0.0
22/07:00pm 20.6 20.9 18.7 89 1.2 NNW 15 19 8 10 1011.3 1011.3 0.0
22/06:30pm 21.2 21.6 18.2 83 1.9 NNW 13 17 7 9 1011.1 1011.1 0.0
22/06:00pm 21.0 21.1 19.1 89 1.2 NNW 17 20 9 11 1010.9 1010.9 0.0
22/05:30pm 21.1 21.1 19.0 88 1.3 N 17 20 9 11 1010.6 1010.6 0.0
22/05:00pm 21.5 21.2 19.2 87 1.5 N 19 22 10 12 1010.2 1010.2 0.0
22/04:30pm 22.4 21.6 18.4 78 2.5 N 20 26 11 14 1010.1 1010.1 0.0
22/04:00pm 23.0 20.4 17.9 73 3.2 N 28 32 15 17 1010.0 1010.0 0.0
22/03:30pm 23.2 20.8 18.3 74 3.1 N 28 41 15 22 1009.9 1009.9 0.0
22/03:00pm 23.2 20.9 18.5 75 3.0 N 28 33 15 18 1010.0 1010.0 0.0
22/02:30pm 23.6 22.5 18.7 74 3.1 NNE 22 28 12 15 1010.3 1010.3 0.0
22/02:00pm 23.3 22.4 18.2 73 3.2 NNE 20 26 11 14 1010.7 1010.7 0.0
22/01:30pm 23.9 23.1 18.5 72 3.4 NNE 20 28 11 15 1011.2 1011.2 0.0
22/01:00pm 24.1 22.6 17.8 68 3.9 N 22 28 12 15 1011.7 1011.7 0.0
22/12:30pm 23.7 22.3 17.9 70 3.6 N 22 28 12 15 1012.3 1012.3 0.0
22/12:00pm 24.2 22.5 18.2 69 3.8 N 24 28 13 15 1013.1 1013.1 0.0
22/11:30am 23.0 22.2 17.9 73 3.2 N 19 24 10 13 1013.7 1013.7 0.0
22/11:00am 22.3 21.9 18.1 77 2.6 N 17 20 9 11 1014.4 1014.4 0.0
22/10:30am 22.8 22.2 17.5 72 3.3 N 17 20 9 11 1014.8 1014.8 0.0
22/10:00am 22.5 21.6 18.1 76 2.7 N 20 22 11 12 1015.0 1015.0 0.0
22/09:30am 22.1 22.0 17.0 73 3.1 N 13 17 7 9 1015.4 1015.4 0.0
22/09:00am 20.8 20.7 17.0 79 2.3 N 13 15 7 8 1015.5 1015.5 0.0
22/08:30am 19.5 22.1 17.6 89 1.2 CALM 0 0 0 0 1015.5 1015.5 0.0
22/08:00am 17.8 19.9 17.3 97 0.3 SSW 2 7 1 4 1015.5 1015.5 0.0
22/07:30am 16.6 18.8 16.4 99 0.1 CALM 0 0 0 0 1015.4 1015.4 0.0
22/07:14am 15.8 17.6 15.6 99 0.1 CALM 0 0 0 0 1015.3 1015.3 0.0
22/07:00am 15.3 16.2 15.1 99 0.1 SSW 4 7 2 4 1015.3 1015.3 0.0
22/06:30am 15.4 16.7 15.2 99 0.1 WSW 2 6 1 3 1015.2 1015.2 0.0

Other Formats:

Comma delimited format used in spreadsheet applications
http://www.bom.gov.au/fwo/IDN60801/IDN60801.94592.axf

JavaScript Object Notation format (JSON) in row-major order
http://www.bom.gov.au/fwo/IDN60801/IDN60801.94592.json